Time;durP1;ratioP1;P1;durP2;ratioP2;P2;SDS_P1;SDS_P2;PMS_P1;PMS_P2;Temp;Humidity;BMP_temperature;BMP_pressure;BME280_temperature;BME280_humidity;BME280_pressure;Samples;Min_cycle;Max_cycle;Signal;HPM_P1;HPM_P2
2022/06/02 00:00:28;;;;;;;;;;;;;;;23.41;53.01;99264.50;2034479;28;19919;-56
2022/06/02 00:01:35;;;;;;;;;;;;;;;23.41;53.14;99260.91;2005556;29;19963;-56
2022/06/02 00:02:56;;;;;;;;;;;;;;;23.40;53.28;99260.06;2010052;29;19912;-56
2022/06/02 00:04:05;;;;;;;;;;;;;;;23.40;53.04;99259.22;1995381;29;19919;-56
2022/06/02 00:05:12;;;;;;;;;;;;;;;23.40;53.13;99260.06;2011001;29;20055;-56
2022/06/02 00:06:19;;;;;;;;;;;;;;;23.40;53.13;99254.56;2011042;29;19924;-56
2022/06/02 00:07:30;;;;;;;;;;;;;;;23.40;53.13;99260.06;2034404;28;20013;-56
2022/06/02 00:08:30;;;;;;;;;;;;;;;23.40;53.09;99250.97;2050505;28;20642;-57
2022/06/02 00:09:37;;;;;;;;;;;;;;;23.40;53.07;99260.06;2052656;28;19921;-57
2022/06/02 00:10:46;;;;;;;;;;;;;;;23.40;53.13;99254.56;2045482;28;19973;-56
2022/06/02 00:11:52;;;;;;;;;;;;;;;23.41;53.11;99256.25;2043409;28;19918;-56
2022/06/02 00:12:59;;;;;;;;;;;;;;;23.41;53.09;99255.41;2043612;28;19930;-57
2022/06/02 00:14:18;;;;;;;;;;;;;;;23.40;53.08;99249.06;2044145;28;19934;-56
2022/06/02 00:15:38;;;;;;;;;;;;;;;23.41;53.17;99250.75;2041835;28;19922;-56
2022/06/02 00:16:39;;;;;;;;;;;;;;;23.41;52.97;99261.75;2043157;28;19918;-56
2022/06/02 00:17:50;;;;;;;;;;;;;;;23.41;53.03;99261.75;2043878;28;19917;-56
2022/06/02 00:18:57;;;;;;;;;;;;;;;23.41;52.93;99261.75;2044263;28;19922;-56
2022/06/02 00:20:02;;;;;;;;;;;;;;;23.41;52.91;99259.00;2042417;28;19918;-56
2022/06/02 00:21:09;;;;;;;;;;;;;;;23.42;52.92;99274.47;2044427;28;20557;-56
2022/06/02 00:22:35;;;;;;;;;;;;;;;23.42;52.82;99270.84;2043564;28;19918;-57
2022/06/02 00:23:39;;;;;;;;;;;;;;;23.42;52.88;99281.84;2044647;28;19911;-56
2022/06/02 00:24:45;;;;;;;;;;;;;;;23.42;52.73;99288.22;2040896;28;20744;-56
2022/06/02 00:25:54;;;;;;;;;;;;;;;23.42;52.79;99290.97;2043103;28;20289;-57
2022/06/02 00:26:57;;;;;;;;;;;;;;;23.43;52.72;99292.66;2039910;28;19918;-56
2022/06/02 00:27:57;;;;;;;;;;;;;;;23.42;52.93;99290.97;2041019;28;20229;-57
2022/06/02 00:29:09;;;;;;;;;;;;;;;23.41;52.83;99289.25;2043879;28;20140;-56
2022/06/02 00:30:16;;;;;;;;;;;;;;;23.41;52.82;99292.00;2044712;28;19962;-57
2022/06/02 00:31:26;;;;;;;;;;;;;;;23.40;52.75;99298.56;2040695;28;19945;-56
2022/06/02 00:32:26;;;;;;;;;;;;;;;23.40;52.91;99300.47;2043972;28;19989;-56
2022/06/02 00:33:37;;;;;;;;;;;;;;;23.40;52.93;99304.06;2045952;28;19918;-57
2022/06/02 00:34:54;;;;;;;;;;;;;;;23.40;53.09;99309.56;2043295;28;19965;-56
2022/06/02 00:36:05;;;;;;;;;;;;;;;23.39;53.19;99310.59;2043625;28;20012;-57
2022/06/02 00:37:21;;;;;;;;;;;;;;;23.38;53.19;99303.41;2043585;28;19949;-56
2022/06/02 00:38:21;;;;;;;;;;;;;;;23.38;53.28;99311.66;2040466;28;19918;-56
2022/06/02 00:39:21;;;;;;;;;;;;;;;23.39;53.32;99312.50;2044303;28;19922;-56
2022/06/02 00:40:22;;;;;;;;;;;;;;;23.38;53.36;99311.66;2044326;28;19966;-56
2022/06/02 00:41:43;;;;;;;;;;;;;;;23.39;53.10;99318.00;2043354;28;20344;-57
2022/06/02 00:42:55;;;;;;;;;;;;;;;23.38;53.18;99317.16;2042853;28;19918;-57
2022/06/02 00:44:14;;;;;;;;;;;;;;;23.38;53.11;99328.16;2044990;28;19918;-57
2022/06/02 00:45:16;;;;;;;;;;;;;;;23.39;53.08;99329.00;2043637;28;19964;-56
2022/06/02 00:46:23;;;;;;;;;;;;;;;23.39;53.07;99323.50;2039145;28;19918;-57
2022/06/02 00:47:26;;;;;;;;;;;;;;;23.40;53.19;99331.56;2045061;28;20348;-56
2022/06/02 00:48:37;;;;;;;;;;;;;;;23.40;53.15;99326.06;2044217;28;20332;-56
2022/06/02 00:49:56;;;;;;;;;;;;;;;23.40;53.12;99331.56;2043271;28;20338;-56
2022/06/02 00:51:06;;;;;;;;;;;;;;;23.39;52.99;99335.34;2037732;28;19918;-56
2022/06/02 00:52:13;;;;;;;;;;;;;;;23.40;53.07;99342.56;2045058;28;19922;-57
2022/06/02 00:53:32;;;;;;;;;;;;;;;23.41;52.97;99344.25;2042140;28;19957;-57
2022/06/02 00:57:30;;;;;;;;;;;;;;;23.41;52.99;99337.91;2038045;28;20141;-56
2022/06/02 00:58:31;;;;;;;;;;;;;;;23.41;52.80;99333.25;2044679;28;20147;-57
2022/06/02 00:59:36;;;;;;;;;;;;;;;23.41;52.82;99330.50;2041939;28;19929;-57
2022/06/02 01:00:41;;;;;;;;;;;;;;;23.40;52.96;99320.56;2045024;28;19912;-56
2022/06/02 01:01:42;;;;;;;;;;;;;;;23.41;52.82;99321.41;2044337;28;19926;-56
2022/06/02 01:02:45;;;;;;;;;;;;;;;23.40;52.94;99322.47;2042812;28;19910;-56
2022/06/02 01:03:47;;;;;;;;;;;;;;;23.40;52.96;99319.72;2044414;28;19918;-57
2022/06/02 01:04:47;;;;;;;;;;;;;;;23.40;52.85;99319.72;2043116;28;19913;-54
2022/06/02 01:05:59;;;;;;;;;;;;;;;23.39;52.87;99318.84;2043510;28;20645;-56
2022/06/02 01:07:10;;;;;;;;;;;;;;;23.39;52.96;99318.84;2045007;28;20350;-56
2022/06/02 01:08:27;;;;;;;;;;;;;;;23.39;53.02;99318.84;2042806;28;19918;-57
2022/06/02 01:09:42;;;;;;;;;;;;;;;23.38;53.06;99311.66;2042279;28;19946;-57
2022/06/02 01:10:54;;;;;;;;;;;;;;;23.38;52.95;99314.41;2045285;28;20744;-56
2022/06/02 01:12:12;;;;;;;;;;;;;;;23.38;52.93;99311.66;2044254;28;19918;-56
2022/06/02 01:13:29;;;;;;;;;;;;;;;23.38;52.96;99305.31;2042005;28;19933;-56
2022/06/02 01:14:48;;;;;;;;;;;;;;;23.37;52.92;99309.97;2041964;28;19922;-56
2022/06/02 01:15:48;;;;;;;;;;;;;;;23.38;53.14;99305.31;2042860;28;20025;-56
2022/06/02 01:16:56;;;;;;;;;;;;;;;23.37;53.12;99303.59;2044225;28;19918;-57
2022/06/02 01:17:56;;;;;;;;;;;;;;;23.37;53.12;99298.97;2051470;28;19917;-56
2022/06/02 01:19:06;;;;;;;;;;;;;;;23.37;53.17;99304.47;2052350;28;19917;-57
2022/06/02 01:20:12;;;;;;;;;;;;;;;23.37;53.15;99296.22;2043207;28;20081;-56
2022/06/02 01:21:15;;;;;;;;;;;;;;;23.36;53.13;99297.25;2043343;28;19926;-56
2022/06/02 01:22:18;;;;;;;;;;;;;;;23.37;53.12;99293.47;2045052;28;20048;-56
2022/06/02 01:23:19;;;;;;;;;;;;;;;23.37;53.09;99298.97;2044340;28;20016;-56
2022/06/02 01:24:46;;;;;;;;;;;;;;;23.37;52.97;99293.47;2043642;28;20004;-56
2022/06/02 01:25:49;;;;;;;;;;;;;;;23.38;52.92;99303.41;2041327;28;19917;-56
2022/06/02 01:27:08;;;;;;;;;;;;;;;23.39;52.87;99302.34;2045595;28;19925;-55
2022/06/02 01:28:26;;;;;;;;;;;;;;;23.39;52.93;99293.25;2041957;28;20296;-56
2022/06/02 01:29:59;;;;;;;;;;;;;;;23.38;52.84;99306.16;2039773;28;19918;-56
2022/06/02 01:31:08;;;;;;;;;;;;;;;23.39;52.77;99296.00;2032208;28;19962;-56
2022/06/02 01:32:17;;;;;;;;;;;;;;;23.38;52.78;99297.91;2040442;28;20183;-56
2022/06/02 01:33:26;;;;;;;;;;;;;;;23.39;52.72;99302.34;2042872;28;19915;-56
2022/06/02 01:34:32;;;;;;;;;;;;;;;23.39;52.82;99296.84;2044509;28;19918;-56
2022/06/02 01:35:56;;;;;;;;;;;;;;;23.39;52.71;99296.84;2042175;28;20590;-56
2022/06/02 01:37:02;;;;;;;;;;;;;;;23.39;52.63;99302.34;2038034;28;19918;-57
2022/06/02 01:38:02;;;;;;;;;;;;;;;23.39;52.80;99307.84;2044102;28;19915;-56
2022/06/02 01:39:04;;;;;;;;;;;;;;;23.39;52.61;99307.84;2043823;28;19918;-57
2022/06/02 01:40:10;;;;;;;;;;;;;;;23.39;52.59;99296.00;2052171;28;20370;-56
2022/06/02 01:41:10;;;;;;;;;;;;;;;23.38;52.56;99292.41;2049681;28;19953;-57
2022/06/02 01:42:29;;;;;;;;;;;;;;;23.38;52.66;99297.91;2041240;28;19926;-56
2022/06/02 01:43:35;;;;;;;;;;;;;;;23.38;52.62;99300.66;2043616;28;20320;-56
2022/06/02 01:44:39;;;;;;;;;;;;;;;23.37;52.93;99293.47;2036915;28;19946;-56
2022/06/02 01:45:39;;;;;;;;;;;;;;;23.37;52.92;99298.09;2043061;28;20139;-56
2022/06/02 01:47:14;;;;;;;;;;;;;;;23.37;53.00;99301.72;2043877;28;19940;-56
2022/06/02 01:48:33;;;;;;;;;;;;;;;23.36;52.90;99302.75;2034115;29;20301;-56
2022/06/02 01:49:52;;;;;;;;;;;;;;;23.36;52.93;99304.66;2029550;29;19954;-56
2022/06/02 01:51:00;;;;;;;;;;;;;;;23.36;52.96;99304.66;2040448;28;20013;-57
2022/06/02 01:52:08;;;;;;;;;;;;;;;23.36;52.93;99307.41;2042360;28;19922;-56
2022/06/02 01:53:15;;;;;;;;;;;;;;;23.36;53.13;99307.41;2043913;28;19918;-56
2022/06/02 01:54:24;;;;;;;;;;;;;;;23.35;53.00;99295.56;2046666;28;19987;-57
2022/06/02 01:55:27;;;;;;;;;;;;;;;23.35;52.89;99298.31;2043689;28;20430;-56
2022/06/02 01:56:28;;;;;;;;;;;;;;;23.36;53.02;99304.66;2045641;28;19945;-56
2022/06/02 01:57:47;;;;;;;;;;;;;;;23.36;52.93;99301.91;2045201;28;20380;-57
2022/06/02 01:58:58;;;;;;;;;;;;;;;23.36;52.98;99297.25;2045637;28;19918;-56
2022/06/02 01:59:58;;;;;;;;;;;;;;;23.36;52.89;99297.25;2043558;28;19929;-56
2022/06/02 02:01:05;;;;;;;;;;;;;;;23.36;52.96;99305.50;2045596;28;19941;-56
2022/06/02 02:02:05;;;;;;;;;;;;;;;23.36;52.80;99300.00;2044053;28;20221;-57
2022/06/02 02:03:14;;;;;;;;;;;;;;;23.36;52.85;99311.00;2045918;28;19925;-57
2022/06/02 02:04:21;;;;;;;;;;;;;;;23.37;52.81;99309.97;2045095;28;19962;-56
2022/06/02 02:05:34;;;;;;;;;;;;;;;23.37;52.80;99309.97;2044351;28;20005;-57
2022/06/02 02:06:51;;;;;;;;;;;;;;;23.37;52.68;99309.97;2045055;28;19918;-56
2022/06/02 02:08:03;;;;;;;;;;;;;;;23.38;52.60;99317.16;2045604;28;19950;-57
2022/06/02 02:09:13;;;;;;;;;;;;;;;23.37;52.66;99315.47;2045397;28;20833;-57
2022/06/02 02:10:19;;;;;;;;;;;;;;;23.37;52.56;99318.22;2043955;28;19930;-56
2022/06/02 02:11:29;;;;;;;;;;;;;;;23.37;52.46;99320.97;2043814;28;19921;-56
2022/06/02 02:12:29;;;;;;;;;;;;;;;23.38;52.60;99325.41;2043814;28;20054;-56
2022/06/02 02:13:48;;;;;;;;;;;;;;;23.37;52.66;99320.97;2046204;28;19918;-57
2022/06/02 02:14:52;;;;;;;;;;;;;;;23.37;52.55;99325.59;2044828;28;19906;-57
2022/06/02 02:16:11;;;;;;;;;;;;;;;23.37;52.47;99314.59;2045308;28;19910;-56
2022/06/02 02:17:11;;;;;;;;;;;;;;;23.37;52.50;99314.59;2044202;28;19918;-56
2022/06/02 02:18:11;;;;;;;;;;;;;;;23.37;52.60;99320.97;2044998;28;19918;-56
2022/06/02 02:19:30;;;;;;;;;;;;;;;23.36;52.58;99319.25;2041416;28;19925;-56
2022/06/02 02:20:34;;;;;;;;;;;;;;;23.36;52.66;99319.25;2045588;28;19929;-56
2022/06/02 02:21:52;;;;;;;;;;;;;;;23.36;52.72;99330.25;2043512;28;19926;-56
2022/06/02 02:22:52;;;;;;;;;;;;;;;23.36;52.63;99327.50;2040068;28;19922;-56
2022/06/02 02:23:58;;;;;;;;;;;;;;;23.35;52.65;99328.56;2045734;28;20213;-56
2022/06/02 02:25:01;;;;;;;;;;;;;;;23.35;52.73;99328.56;2044983;28;19918;-56
2022/06/02 02:26:01;;;;;;;;;;;;;;;23.36;52.74;99334.91;2043509;28;19918;-56
2022/06/02 02:27:11;;;;;;;;;;;;;;;23.35;52.81;99328.56;2045051;28;19917;-56
2022/06/02 02:28:11;;;;;;;;;;;;;;;23.35;52.90;99338.69;2044007;28;20505;-56
2022/06/02 02:29:30;;;;;;;;;;;;;;;23.34;52.91;99337.84;2044506;28;20122;-57
2022/06/02 02:30:46;;;;;;;;;;;;;;;23.36;52.82;99348.66;2045399;28;19925;-56
2022/06/02 02:32:01;;;;;;;;;;;;;;;23.35;52.95;99339.56;2045439;28;19929;-56
2022/06/02 02:33:20;;;;;;;;;;;;;;;23.36;52.80;99345.91;2044907;28;19922;-56
2022/06/02 02:34:39;;;;;;;;;;;;;;;23.35;52.81;99345.06;2039661;28;20340;-56
2022/06/02 02:35:51;;;;;;;;;;;;;;;23.35;52.78;99342.31;2044910;28;19953;-57
2022/06/02 02:37:11;;;;;;;;;;;;;;;23.35;52.63;99336.81;2046577;28;20319;-57
2022/06/02 02:38:16;;;;;;;;;;;;;;;23.36;52.78;99334.91;2043952;28;19918;-56
2022/06/02 02:39:23;;;;;;;;;;;;;;;23.36;52.79;99335.75;2044584;28;19917;-56
2022/06/02 02:40:29;;;;;;;;;;;;;;;23.36;52.65;99318.41;2045794;28;20334;-57
2022/06/02 02:41:46;;;;;;;;;;;;;;;23.36;52.63;99323.91;2046291;28;20455;-57
2022/06/02 02:42:51;;;;;;;;;;;;;;;23.36;52.72;99324.75;2043788;28;19918;-56
2022/06/02 02:43:54;;;;;;;;;;;;;;;23.36;52.75;99330.25;2044054;28;19910;-56
2022/06/02 02:45:03;;;;;;;;;;;;;;;23.36;52.78;99333.00;2045925;28;19918;-56
2022/06/02 02:46:04;;;;;;;;;;;;;;;23.36;52.77;99338.50;2042818;28;20323;-56
2022/06/02 02:47:11;;;;;;;;;;;;;;;23.36;52.62;99346.75;2043977;28;19914;-56
2022/06/02 02:48:36;;;;;;;;;;;;;;;23.36;52.72;99344.00;2045986;28;20130;-56
2022/06/02 02:49:43;;;;;;;;;;;;;;;23.36;52.70;99357.75;2041914;28;19922;-57
2022/06/02 02:50:56;;;;;;;;;;;;;;;23.35;52.69;99345.06;2044270;28;19932;-56
2022/06/02 02:52:10;;;;;;;;;;;;;;;23.35;52.58;99353.31;2043835;28;20241;-56
2022/06/02 02:53:21;;;;;;;;;;;;;;;23.36;52.73;99363.25;2045424;28;20168;-56
2022/06/02 02:54:21;;;;;;;;;;;;;;;23.35;52.56;99349.69;2037217;28;20291;-56
2022/06/02 02:55:33;;;;;;;;;;;;;;;23.35;52.71;99355.19;2044490;28;19918;-56
2022/06/02 02:56:33;;;;;;;;;;;;;;;23.35;52.69;99356.06;2044516;28;19965;-56
2022/06/02 02:57:52;;;;;;;;;;;;;;;23.35;52.68;99352.44;2045279;28;19918;-57
2022/06/02 02:59:11;;;;;;;;;;;;;;;23.35;52.85;99356.06;2044990;28;19943;-57
2022/06/02 03:00:14;;;;;;;;;;;;;;;23.34;53.01;99351.59;2043765;28;20095;-56
2022/06/02 03:01:24;;;;;;;;;;;;;;;23.34;53.06;99359.84;2044585;28;19941;-56
2022/06/02 03:02:36;;;;;;;;;;;;;;;23.33;52.81;99363.66;2045436;28;19918;-56
2022/06/02 03:03:41;;;;;;;;;;;;;;;23.32;52.86;99353.69;2045688;28;19921;-56
2022/06/02 03:04:41;;;;;;;;;;;;;;;23.33;52.99;99363.66;2044533;28;19998;-56
2022/06/02 03:05:48;;;;;;;;;;;;;;;23.33;52.94;99364.50;2044883;28;20581;-56
2022/06/02 03:06:52;;;;;;;;;;;;;;;23.33;52.84;99359.00;2044362;28;20000;-56
2022/06/02 03:07:59;;;;;;;;;;;;;;;23.33;52.97;99358.16;2044708;28;20465;-56
2022/06/02 03:09:08;;;;;;;;;;;;;;;23.34;52.84;99354.34;2045289;28;20720;-56
2022/06/02 03:10:15;;;;;;;;;;;;;;;23.33;52.84;99349.91;2044654;28;19918;-56
2022/06/02 03:11:27;;;;;;;;;;;;;;;23.32;52.71;99343.56;2044073;28;19922;-56
2022/06/02 03:12:34;;;;;;;;;;;;;;;23.34;52.66;99348.84;2044349;28;20281;-56
2022/06/02 03:13:50;;;;;;;;;;;;;;;23.33;52.68;99342.50;2045334;28;19918;-56
2022/06/02 03:14:50;;;;;;;;;;;;;;;23.33;52.77;99344.41;2042322;28;19910;-56
2022/06/02 03:15:51;;;;;;;;;;;;;;;23.34;52.70;99343.34;2044392;28;20273;-55
2022/06/02 03:16:56;;;;;;;;;;;;;;;23.34;52.63;99337.84;2046431;28;20362;-57
2022/06/02 03:18:12;;;;;;;;;;;;;;;23.34;52.75;99337.84;2044163;28;19910;-56
2022/06/02 03:19:37;;;;;;;;;;;;;;;23.34;52.71;99337.84;2044003;28;19922;-57
2022/06/02 03:20:37;;;;;;;;;;;;;;;23.34;52.65;99337.84;2044267;28;20179;-56
2022/06/02 03:21:56;;;;;;;;;;;;;;;23.35;52.66;99331.31;2045157;28;19950;-56
2022/06/02 03:23:15;;;;;;;;;;;;;;;23.34;52.59;99332.34;2043226;28;20499;-56
2022/06/02 03:24:27;;;;;;;;;;;;;;;23.34;52.36;99332.34;2040640;28;19938;-56
2022/06/02 03:25:45;;;;;;;;;;;;;;;23.34;52.70;99329.59;2044302;28;19949;-57
2022/06/02 03:26:49;;;;;;;;;;;;;;;23.33;52.59;99336.16;2045371;28;19921;-56
2022/06/02 03:28:19;;;;;;;;;;;;;;;23.33;52.64;99334.25;2043564;28;20048;-56
2022/06/02 03:29:26;;;;;;;;;;;;;;;23.33;52.52;99338.91;2043174;28;19929;-56
2022/06/02 03:30:34;;;;;;;;;;;;;;;23.33;52.71;99338.91;2044724;28;19917;-56
2022/06/02 03:31:53;;;;;;;;;;;;;;;23.32;52.86;99339.94;2043135;28;19946;-56
2022/06/02 03:33:12;;;;;;;;;;;;;;;23.32;52.90;99348.19;2044062;28;20008;-56
2022/06/02 03:34:25;;;;;;;;;;;;;;;23.32;52.93;99351.81;2040516;28;19925;-57
2022/06/02 03:35:40;;;;;;;;;;;;;;;23.31;52.77;99355.59;2042054;28;19918;-56
2022/06/02 03:37:07;;;;;;;;;;;;;;;23.31;52.76;99357.50;2044638;28;19926;-56
2022/06/02 03:38:26;;;;;;;;;;;;;;;23.31;53.00;99376.72;2043400;28;20602;-56
2022/06/02 03:39:29;;;;;;;;;;;;;;;23.32;53.05;99381.19;2043694;28;20285;-56
2022/06/02 03:40:33;;;;;;;;;;;;;;;23.32;52.83;99386.69;2044700;28;19922;-56
2022/06/02 03:41:56;;;;;;;;;;;;;;;23.31;52.91;99398.72;2045129;28;20325;-57
2022/06/02 03:42:56;;;;;;;;;;;;;;;23.32;52.85;99419.69;2041494;28;19922;-57
2022/06/02 03:44:15;;;;;;;;;;;;;;;23.31;52.95;99426.22;2044374;28;19926;-56
2022/06/02 03:45:15;;;;;;;;;;;;;;;23.33;52.95;99443.41;2046648;28;20009;-57
2022/06/02 03:46:39;;;;;;;;;;;;;;;23.32;52.71;99456.31;2044027;28;19918;-56
2022/06/02 03:47:45;;;;;;;;;;;;;;;23.33;52.69;99465.41;2040739;28;20229;-57
2022/06/02 03:48:59;;;;;;;;;;;;;;;23.34;52.71;99464.34;2044683;28;19953;-57
2022/06/02 03:50:06;;;;;;;;;;;;;;;23.33;52.68;99468.16;2044494;28;20387;-56
2022/06/02 03:51:25;;;;;;;;;;;;;;;23.33;52.79;99468.16;2043482;28;20243;-56
2022/06/02 03:52:35;;;;;;;;;;;;;;;23.34;52.57;99469.84;2044534;28;19922;-57
2022/06/02 03:53:41;;;;;;;;;;;;;;;23.32;52.71;99472.81;2042823;28;20226;-56
2022/06/02 03:54:53;;;;;;;;;;;;;;;23.33;52.60;99479.16;2043064;28;20358;-56
2022/06/02 03:55:57;;;;;;;;;;;;;;;23.34;52.65;99478.09;2043840;28;20357;-56
2022/06/02 03:57:00;;;;;;;;;;;;;;;23.33;52.65;99462.66;2038725;28;19917;-56
2022/06/02 03:58:06;;;;;;;;;;;;;;;23.32;52.60;99453.56;2043111;28;19918;-57
2022/06/02 03:59:24;;;;;;;;;;;;;;;23.32;52.62;99450.81;2043363;28;20350;-56
2022/06/02 04:00:28;;;;;;;;;;;;;;;23.32;52.59;99455.44;2045532;28;20459;-56
2022/06/02 04:01:39;;;;;;;;;;;;;;;23.31;52.60;99449.06;2044201;28;20337;-56
2022/06/02 04:02:42;;;;;;;;;;;;;;;23.31;52.82;99445.47;2043644;28;20428;-56
2022/06/02 04:03:46;;;;;;;;;;;;;;;23.30;52.68;99436.38;2045158;28;20061;-56
2022/06/02 04:05:09;;;;;;;;;;;;;;;23.31;52.73;99431.72;2050392;28;19939;-56
2022/06/02 04:06:20;;;;;;;;;;;;;;;23.30;52.93;99419.88;2044043;28;19929;-57
2022/06/02 04:07:31;;;;;;;;;;;;;;;23.28;52.96;99399.13;2046590;28;19933;-56
2022/06/02 04:08:40;;;;;;;;;;;;;;;23.28;52.94;99391.72;2043148;28;19926;-56
2022/06/02 04:09:44;;;;;;;;;;;;;;;23.28;53.07;99385.38;2041900;28;20223;-57
2022/06/02 04:10:52;;;;;;;;;;;;;;;23.28;53.23;99380.72;2043544;28;19945;-57
2022/06/02 04:13:39;;;;;;;;;;;;;;;23.28;53.57;99374.38;2044176;28;19941;-56
2022/06/02 04:14:59;;;;;;;;;;;;;;;23.27;53.62;99372.66;2043246;28;19962;-56
2022/06/02 04:16:02;;;;;;;;;;;;;;;23.28;53.53;99377.13;2037892;28;20233;-56
2022/06/02 04:17:10;;;;;;;;;;;;;;;23.28;53.69;99368.88;2045658;28;19918;-56
2022/06/02 04:18:29;;;;;;;;;;;;;;;23.28;53.64;99346.88;2043254;28;19953;-56
2022/06/02 04:21:20;;;;;;;;;;;;;;;23.28;53.46;99322.13;2041922;28;20369;-56
2022/06/02 04:22:39;;;;;;;;;;;;;;;23.28;53.39;99330.38;2044213;28;19918;-56
2022/06/02 04:23:39;;;;;;;;;;;;;;;23.28;53.40;99322.13;2044539;28;19918;-57
2022/06/02 04:25:02;;;;;;;;;;;;;;;23.28;53.40;99328.47;2043731;28;19918;-56
2022/06/02 04:26:12;;;;;;;;;;;;;;;23.30;53.31;99331.06;2041396;28;20562;-56
2022/06/02 04:27:23;;;;;;;;;;;;;;;23.29;53.32;99334.81;2043805;28;19924;-56
2022/06/02 04:28:26;;;;;;;;;;;;;;;23.29;53.22;99326.56;2043033;28;19918;-57
2022/06/02 04:29:38;;;;;;;;;;;;;;;23.28;53.52;99317.50;2043705;28;19914;-56
2022/06/02 04:30:50;;;;;;;;;;;;;;;23.29;53.55;99318.34;2043424;28;20636;-56
2022/06/02 04:31:54;;;;;;;;;;;;;;;23.29;53.64;99316.44;2045636;28;19921;-56
2022/06/02 04:33:04;;;;;;;;;;;;;;;23.30;53.51;99320.06;2042607;28;20017;-56
2022/06/02 04:34:23;;;;;;;;;;;;;;;23.29;53.55;99318.34;2044485;28;19921;-56
2022/06/02 04:35:26;;;;;;;;;;;;;;;23.29;53.46;99310.09;2038259;28;19918;-56
2022/06/02 04:36:33;;;;;;;;;;;;;;;23.28;53.45;99312.00;2044467;28;20155;-56
2022/06/02 04:37:51;;;;;;;;;;;;;;;23.28;53.46;99322.13;2042364;28;19928;-56
2022/06/02 04:39:04;;;;;;;;;;;;;;;23.28;53.73;99331.22;2040682;28;19922;-57
2022/06/02 04:40:23;;;;;;;;;;;;;;;23.28;54.04;99344.13;2044449;28;19945;-57
2022/06/02 04:41:32;;;;;;;;;;;;;;;23.28;53.99;99349.63;2044085;28;20339;-57
2022/06/02 04:42:32;;;;;;;;;;;;;;;23.28;54.01;99355.13;2043656;28;20363;-60
2022/06/02 04:43:39;;;;;;;;;;;;;;;23.29;54.22;99362.31;2044813;28;19918;-56
2022/06/02 04:44:58;;;;;;;;;;;;;;;23.29;54.25;99365.06;2040888;28;19929;-57
2022/06/02 04:45:58;;;;;;;;;;;;;;;23.27;54.27;99364.41;2042755;28;20025;-56
2022/06/02 04:47:08;;;;;;;;;;;;;;;23.28;54.17;99368.88;2043983;28;19922;-56
2022/06/02 04:48:09;;;;;;;;;;;;;;;23.28;54.25;99366.13;2042130;28;20282;-57
2022/06/02 04:49:28;;;;;;;;;;;;;;;23.27;54.29;99375.41;2044464;28;20386;-56
2022/06/02 04:50:53;;;;;;;;;;;;;;;23.27;54.33;99387.28;2043959;28;19922;-56
2022/06/02 04:52:12;;;;;;;;;;;;;;;23.27;54.21;99391.91;2043976;28;20324;-56
2022/06/02 04:53:18;;;;;;;;;;;;;;;23.28;54.12;99404.63;2040312;28;19981;-56
2022/06/02 04:54:39;;;;;;;;;;;;;;;23.28;54.15;99396.38;2042823;28;19957;-56
2022/06/02 04:56:15;;;;;;;;;;;;;;;23.28;54.11;99399.13;2041607;28;19910;-56
2022/06/02 04:57:15;;;;;;;;;;;;;;;23.29;54.08;99409.06;2032643;28;19915;-56
2022/06/02 04:58:25;;;;;;;;;;;;;;;23.29;53.92;99417.31;2034663;29;19922;-56
2022/06/02 04:59:30;;;;;;;;;;;;;;;23.29;54.02;99414.56;2036637;28;19922;-56
2022/06/02 05:00:39;;;;;;;;;;;;;;;23.29;54.06;99420.91;2040805;28;19922;-56
2022/06/02 05:01:58;;;;;;;;;;;;;;;23.29;53.88;99417.31;2044225;28;19914;-55
2022/06/02 05:03:24;;;;;;;;;;;;;;;23.27;53.97;99416.66;2041966;28;19910;-56
2022/06/02 05:04:35;;;;;;;;;;;;;;;23.28;53.94;99418.38;2041630;28;20378;-56
2022/06/02 05:05:54;;;;;;;;;;;;;;;23.28;53.92;99426.63;2043117;28;19945;-56
2022/06/02 05:07:00;;;;;;;;;;;;;;;23.28;53.95;99429.38;2039208;28;19922;-56
2022/06/02 05:08:09;;;;;;;;;;;;;;;23.27;53.85;99424.91;2043391;28;19960;-56
2022/06/02 05:09:12;;;;;;;;;;;;;;;23.27;53.79;99424.91;2042829;28;19928;-56
2022/06/02 05:10:31;;;;;;;;;;;;;;;23.28;53.84;99426.63;2043421;28;19925;-56
2022/06/02 05:11:43;;;;;;;;;;;;;;;23.28;53.85;99426.63;2042250;28;20341;-55
2022/06/02 05:13:04;;;;;;;;;;;;;;;23.27;53.80;99433.16;2042563;28;19922;-56
2022/06/02 05:14:13;;;;;;;;;;;;;;;23.27;53.87;99444.16;2040726;28;19969;-55
2022/06/02 05:15:34;;;;;;;;;;;;;;;23.27;53.71;99431.28;2042022;28;19918;-56
2022/06/02 05:16:53;;;;;;;;;;;;;;;23.26;53.75;99429.56;2040556;28;19922;-56
2022/06/02 05:17:59;;;;;;;;;;;;;;;23.26;53.82;99418.56;2043983;28;20295;-56
2022/06/02 05:19:08;;;;;;;;;;;;;;;23.27;53.74;99413.91;2042264;28;20395;-55
2022/06/02 05:20:32;;;;;;;;;;;;;;;23.25;53.75;99411.38;2043242;28;20448;-56
2022/06/02 05:21:46;;;;;;;;;;;;;;;23.26;53.81;99409.47;2042366;28;19918;-56
2022/06/02 05:22:46;;;;;;;;;;;;;;;23.26;53.78;99409.47;2042908;28;19981;-56
2022/06/02 05:23:54;;;;;;;;;;;;;;;23.26;53.70;99406.72;2042156;28;19914;-56
2022/06/02 05:25:04;;;;;;;;;;;;;;;23.25;53.81;99407.75;2041596;28;20285;-56
2022/06/02 05:26:10;;;;;;;;;;;;;;;23.26;53.78;99402.06;2051113;28;19910;-56
2022/06/02 05:27:16;;;;;;;;;;;;;;;23.25;53.76;99405.00;2046624;28;19930;-56
2022/06/02 05:28:27;;;;;;;;;;;;;;;23.25;53.76;99405.00;2049946;28;20215;-56
2022/06/02 05:29:36;;;;;;;;;;;;;;;23.25;53.76;99413.25;2040323;28;19925;-56
2022/06/02 05:30:36;;;;;;;;;;;;;;;23.25;53.82;99425.13;2042354;28;20310;-56
2022/06/02 05:31:37;;;;;;;;;;;;;;;23.26;53.70;99428.72;2044016;28;20333;-55
2022/06/02 05:32:37;;;;;;;;;;;;;;;23.26;53.82;99445.22;2041482;28;20000;-56
2022/06/02 05:33:50;;;;;;;;;;;;;;;23.26;53.79;99450.72;2042839;28;19918;-56
2022/06/02 05:34:50;;;;;;;;;;;;;;;23.25;53.67;99449.00;2043091;28;20012;-56
2022/06/02 05:35:56;;;;;;;;;;;;;;;23.25;53.68;99455.38;2041905;28;19910;-58
2022/06/02 05:37:20;;;;;;;;;;;;;;;23.27;53.71;99452.41;2044597;28;19918;-58
2022/06/02 05:38:36;;;;;;;;;;;;;;;23.27;53.67;99463.41;2040964;28;19910;-58
2022/06/02 05:39:46;;;;;;;;;;;;;;;23.27;53.81;99468.91;2041769;28;19918;-58
2022/06/02 05:41:11;;;;;;;;;;;;;;;23.26;53.70;99458.97;2040701;28;19917;-58
2022/06/02 05:42:26;;;;;;;;;;;;;;;23.27;53.85;99452.41;2041747;28;19969;-58
2022/06/02 05:43:34;;;;;;;;;;;;;;;23.26;53.83;99451.56;2050113;28;19925;-58
2022/06/02 05:44:44;;;;;;;;;;;;;;;23.27;53.73;99456.03;2049214;28;20426;-58
2022/06/02 05:45:51;;;;;;;;;;;;;;;23.26;53.82;99456.22;2043634;28;19949;-58
2022/06/02 05:46:57;;;;;;;;;;;;;;;23.26;53.82;99464.47;2042914;28;20012;-58
2022/06/02 05:48:03;;;;;;;;;;;;;;;23.27;53.72;99463.41;2042713;28;19917;-58
2022/06/02 05:49:16;;;;;;;;;;;;;;;23.26;53.83;99465.31;2043990;28;20325;-58
2022/06/02 05:50:19;;;;;;;;;;;;;;;23.27;53.74;99466.16;2042270;28;19922;-58
2022/06/02 05:51:29;;;;;;;;;;;;;;;23.26;53.71;99470.81;2041234;28;20257;-58
2022/06/02 05:52:29;;;;;;;;;;;;;;;23.27;53.75;99477.16;2040196;28;19922;-58
2022/06/02 05:53:48;;;;;;;;;;;;;;;23.27;53.78;99478.03;2044586;28;20312;-57
2022/06/02 05:54:48;;;;;;;;;;;;;;;23.28;53.80;99473.38;2040667;28;19922;-58
2022/06/02 05:56:03;;;;;;;;;;;;;;;23.27;53.73;99471.66;2041722;28;20835;-58
2022/06/02 05:57:22;;;;;;;;;;;;;;;23.27;53.75;99468.91;2038909;28;19926;-58
2022/06/02 05:58:25;;;;;;;;;;;;;;;23.27;53.79;99471.66;2042304;28;19910;-58
2022/06/02 05:59:26;;;;;;;;;;;;;;;23.26;53.81;99473.56;2042176;28;19992;-59
2022/06/02 06:00:35;;;;;;;;;;;;;;;23.27;53.81;99475.28;2044360;28;19945;-58
2022/06/02 06:01:50;;;;;;;;;;;;;;;23.27;53.80;99477.16;2041807;28;20252;-57
2022/06/02 06:02:50;;;;;;;;;;;;;;;23.28;53.79;99476.13;2040531;28;20261;-58
2022/06/02 06:03:51;;;;;;;;;;;;;;;23.27;53.79;99479.91;2045040;28;20042;-58
2022/06/02 06:04:51;;;;;;;;;;;;;;;23.27;53.82;99482.66;2043213;28;19926;-57
2022/06/02 06:06:02;;;;;;;;;;;;;;;23.27;53.86;99490.91;2043058;28;20016;-58
2022/06/02 06:07:14;;;;;;;;;;;;;;;23.26;53.93;99495.56;2044417;28;19926;-58
2022/06/02 06:08:33;;;;;;;;;;;;;;;23.28;54.09;99517.38;2043070;28;20056;-58
2022/06/02 06:09:51;;;;;;;;;;;;;;;23.26;54.21;99508.47;2039773;28;20021;-58
2022/06/02 06:10:52;;;;;;;;;;;;;;;23.27;54.13;99513.78;2049546;28;19953;-57